Terminal Aerodrome Forecast
Issued by NWS

Home | Current Version | Previous Version | Graphics & Text | Print | Product List | Glossary On
Versions: 1 2 3 4 5 6 7 8 9 10 11 12 13 14 15 16 17 18 19 20 21 22 23 24 25 26 27 28 29 30 31 32 33 34 35 36 37 38
594
FTUS43 KGRB 081607 AAA
TAFRHI
TAF AMD
KRHI 081607Z 0816/0912 34012G18KT P6SM OVC014
      TEMPO 0816/0818 3SM -SN OVC012
     FM081800 30012G16KT 1 1/2SM -SN OVC010
     FM090000 34012KT 4SM -SN BR OVC011=

USA.gov is the U.S. government's official web portal to all federal, state and local government web resources and services.